Terminal Aerodrome Forecast
Issued by NWS Grand Forks, ND

Home | Current Version | Previous Version | Text Only | Print | Product List | Glossary Off
Versions: 1 2 3 4 5 6 7 8 9 10 11 12 13 14 15 16 17 18 19 20 21 22 23 24 25

000
FTUS43 KFGF 291726
TAFGFK
TAF
KGFK 291726Z 2918/3018 32016G25KT P6SM VCSH OVC040
      TEMPO 2918/2921 BKN025
     FM292300 33016KT P6SM VCSH OVC050
     FM300200 32010KT P6SM OVC040
     FM300600 31009KT P6SM BKN025
     FM301600 32014G23KT P6SM BKN025=

USA.gov is the U.S. government's official web portal to all federal, state and local government web resources and services.